Gumare Airport


Codes: FBGM/
Name: Gumare Airport
City: Gumare
Country: Botswana
Elevation: 3100 ft.

Photos at Gumare Airport


   Photos courtesy of SpottingLog. You can add your own sightings and photos by signing up for a free trial today.



No photos found.

Weather at Gumare Airport


Time (UTC)DescriptionTempratureWindCloud coverageVisibilityPressureHumidity
26-Jun-2024 00:00Clear Sky13°C9 mph, SE7%10000m1023hPa58%
26-Jun-2024 03:00Clear Sky12°C9 mph, SE3%10000m1023hPa70%
26-Jun-2024 06:00Clear Sky12°C9 mph, E2%10000m1025hPa74%
26-Jun-2024 09:00Few Clouds21°C13 mph, E11%10000m1024hPa32%
26-Jun-2024 12:00Clear Sky24°C11 mph, E8%10000m1019hPa24%
26-Jun-2024 15:00Few Clouds24°C11 mph, E20%10000m1018hPa24%
26-Jun-2024 18:00Few Clouds16°C7 mph, SE11%10000m1022hPa40%
26-Jun-2024 21:00Clear Sky13°C7 mph, SE0%10000m1023hPa47%
27-Jun-2024 00:00Clear Sky14°C11 mph, SE1%10000m1023hPa49%
27-Jun-2024 03:00Clear Sky12°C9 mph, E0%10000m1023hPa61%
27-Jun-2024 06:00Clear Sky11°C7 mph, E0%10000m1026hPa63%
27-Jun-2024 09:00Clear Sky21°C13 mph, E0%10000m1023hPa32%
27-Jun-2024 12:00Clear Sky25°C11 mph, E0%10000m1019hPa23%
27-Jun-2024 15:00Clear Sky24°C9 mph, E0%10000m1018hPa23%
27-Jun-2024 18:00Clear Sky16°C7 mph, SE2%10000m1021hPa38%
27-Jun-2024 21:00Clear Sky13°C7 mph, E0%10000m1023hPa47%
28-Jun-2024 00:00Clear Sky12°C7 mph, SE0%10000m1023hPa58%
28-Jun-2024 03:00Clear Sky9°C7 mph, E2%10000m1024hPa82%
28-Jun-2024 06:00Clear Sky10°C7 mph, E1%10000m1025hPa81%
28-Jun-2024 09:00Clear Sky21°C11 mph, E9%10000m1023hPa38%
28-Jun-2024 12:00Few Clouds26°C7 mph, E11%10000m1018hPa23%
28-Jun-2024 15:00Overcast Clouds25°C7 mph, E92%10000m1016hPa23%
28-Jun-2024 18:00Overcast Clouds17°C4 mph, SE95%10000m1020hPa38%
28-Jun-2024 21:00Scattered Clouds14°C7 mph, SE44%10000m1022hPa45%
29-Jun-2024 00:00Few Clouds12°C4 mph, E22%10000m1022hPa58%
29-Jun-2024 03:00Clear Sky10°C7 mph, E1%10000m1021hPa74%
29-Jun-2024 06:00Clear Sky12°C4 mph, E1%10000m1023hPa64%
29-Jun-2024 09:00Clear Sky23°C7 mph, NE0%10000m1021hPa30%
29-Jun-2024 12:00Clear Sky27°C4 mph, SE0%10000m1016hPa19%
29-Jun-2024 15:00Clear Sky26°C7 mph, SE0%10000m1015hPa19%
29-Jun-2024 18:00Clear Sky17°C7 mph, SE0%10000m1019hPa34%
29-Jun-2024 21:00Clear Sky14°C7 mph, SE0%10000m1020hPa43%
30-Jun-2024 00:00Clear Sky12°C7 mph, E0%10000m1021hPa57%
30-Jun-2024 03:00Clear Sky10°C4 mph, E0%10000m1021hPa64%
30-Jun-2024 06:00Clear Sky12°C4 mph, E1%10000m1022hPa57%
30-Jun-2024 09:00Clear Sky23°C7 mph, E0%10000m1021hPa26%
30-Jun-2024 12:00Clear Sky27°C7 mph, SE0%10000m1017hPa16%
30-Jun-2024 15:00Clear Sky26°C9 mph, SE0%10000m1016hPa14%
30-Jun-2024 18:00Clear Sky16°C7 mph, SE0%10000m1019hPa27%
30-Jun-2024 21:00Clear Sky14°C7 mph, SE0%10000m1022hPa35%